createdAt,value
2022-08-31T02:08:02.662Z,97381.13
2022-08-31T02:10:29.915Z,97387.94
2022-08-31T02:12:56.845Z,97393.94
2022-08-31T02:15:29.518Z,97390.47
2022-08-31T02:17:56.135Z,97380.22
2022-08-31T02:20:23.982Z,97380.94
2022-08-31T02:22:50.865Z,97376.97
2022-08-31T02:25:17.874Z,97382.13
2022-08-31T02:27:45.138Z,97384.47
2022-08-31T02:30:16.475Z,97381.94
2022-08-31T02:32:44.072Z,97379.97
2022-08-31T02:35:11.178Z,97377.31
2022-08-31T02:37:38.168Z,97375.66
2022-08-31T02:40:09.402Z,97365.28
2022-08-31T02:42:52.385Z,97363.97
2022-08-31T02:45:21.908Z,97367.75
2022-08-31T02:47:48.621Z,97361.59
2022-08-31T02:50:23.397Z,97359.50
2022-08-31T02:52:50.586Z,97362.03
2022-08-31T02:55:17.937Z,97359.25
2022-08-31T02:57:44.615Z,97365.13
2022-08-31T03:00:12.448Z,97366.78
2022-08-31T03:02:41.085Z,97359.00
2022-08-31T03:05:08.939Z,97366.97
2022-08-31T03:07:38.223Z,97360.94
2022-08-31T03:10:08.224Z,97353.94
2022-08-31T03:12:36.207Z,97353.94
2022-08-31T03:15:04.852Z,97355.59
2022-08-31T03:17:31.431Z,97358.47
2022-08-31T03:20:05.294Z,97358.63
2022-08-31T03:22:33.386Z,97360.81
2022-08-31T03:25:00.847Z,97357.31
2022-08-31T03:27:29.334Z,97363.59
2022-08-31T03:29:56.994Z,97358.84
2022-08-31T03:32:30.959Z,97357.78
2022-08-31T03:34:59.652Z,97364.63
2022-08-31T03:37:27.337Z,97361.00
2022-08-31T03:39:57.762Z,97357.88
2022-08-31T03:42:25.979Z,97361.28
2022-08-31T03:44:54.632Z,97356.81
2022-08-31T03:47:28.382Z,97362.13
2022-08-31T03:49:56.023Z,97363.19
2022-08-31T03:52:25.692Z,97361.78
2022-08-31T03:55:10.804Z,97375.34
2022-08-31T03:57:38.778Z,97370.56
2022-08-31T04:00:07.010Z,97366.78
2022-08-31T04:02:43.387Z,97375.88
2022-08-31T04:05:48.178Z,97361.88
2022-08-31T04:08:15.918Z,97361.13
2022-08-31T04:10:51.102Z,97369.94
2022-08-31T04:13:32.878Z,97364.53
2022-08-31T04:16:20.861Z,97366.78
2022-08-31T04:19:08.064Z,97362.16
2022-08-31T04:21:41.184Z,97363.88
2022-08-31T04:24:12.188Z,97370.75
2022-08-31T04:26:40.851Z,97357.31
2022-08-31T04:29:12.385Z,97364.59
2022-08-31T04:31:40.539Z,97354.19
2022-08-31T04:34:07.206Z,97356.19
2022-08-31T04:36:33.828Z,97355.34
2022-08-31T04:39:03.252Z,97353.34
2022-08-31T04:41:32.358Z,97353.94
2022-08-31T04:44:00.911Z,97343.84
2022-08-31T04:46:29.289Z,97352.06
2022-08-31T04:48:57.191Z,97351.63
2022-08-31T04:51:27.960Z,97356.50
2022-08-31T04:53:55.125Z,97353.22
2022-08-31T04:56:25.005Z,97358.94
2022-08-31T04:59:00.619Z,97359.44
2022-08-31T05:01:42.754Z,97352.31
2022-08-31T05:04:29.164Z,97365.34
2022-08-31T05:06:56.045Z,97362.56
2022-08-31T05:09:23.726Z,97370.66
2022-08-31T05:11:54.105Z,97372.25
2022-08-31T05:14:22.118Z,97383.81
2022-08-31T05:16:55.664Z,97382.72
2022-08-31T05:19:23.122Z,97390.72
2022-08-31T05:21:49.850Z,97390.56
2022-08-31T05:24:22.609Z,97390.84
2022-08-31T05:26:52.674Z,97385.53
2022-08-31T05:29:23.705Z,97376.72
2022-08-31T05:31:57.816Z,97377.91
2022-08-31T05:34:24.543Z,97386.47
2022-08-31T05:36:54.566Z,97378.69
2022-08-31T05:39:22.216Z,97390.84
2022-08-31T05:41:48.890Z,97383.81
2022-08-31T05:44:17.000Z,97390.84
2022-08-31T05:46:44.177Z,97387.22
2022-08-31T05:49:11.702Z,97384.16
2022-08-31T05:51:39.719Z,97391.63
2022-08-31T05:54:07.915Z,97391.34
2022-08-31T05:56:35.702Z,97388.56
2022-08-31T05:59:03.140Z,97395.59
2022-08-31T06:01:33.954Z,97389.53
2022-08-31T06:04:13.265Z,97400.56
2022-08-31T06:06:41.618Z,97385.59
2022-08-31T06:09:11.575Z,97393.28
2022-08-31T06:11:39.580Z,97407.06
2022-08-31T06:14:06.522Z,97401.47
2022-08-31T06:16:36.083Z,97405.69
2022-08-31T06:19:07.147Z,97407.38
2022-08-31T06:21:49.859Z,97404.00
2022-08-31T06:24:22.201Z,97409.31
2022-08-31T06:26:57.922Z,97415.34
2022-08-31T06:29:28.160Z,97411.19
2022-08-31T06:31:55.579Z,97415.03
2022-08-31T06:34:23.496Z,97417.66
2022-08-31T06:36:59.373Z,97411.94
2022-08-31T06:39:45.083Z,97418.81
2022-08-31T06:42:35.563Z,97413.41
2022-08-31T06:45:02.609Z,97417.31
2022-08-31T06:47:42.107Z,97419.31
2022-08-31T06:50:10.496Z,97419.50
2022-08-31T06:52:39.100Z,97417.75
2022-08-31T06:55:25.277Z,97419.47
2022-08-31T06:58:10.382Z,97424.16
2022-08-31T07:01:07.152Z,97426.13
2022-08-31T07:03:55.662Z,97429.78
2022-08-31T07:06:28.774Z,97419.13
2022-08-31T07:09:01.203Z,97430.50
2022-08-31T07:11:33.836Z,97429.25
2022-08-31T07:14:01.972Z,97426.00
2022-08-31T07:16:30.985Z,97424.19
2022-08-31T07:19:03.411Z,97430.06
2022-08-31T07:21:40.724Z,97426.13
2022-08-31T07:24:07.908Z,97421.06
2022-08-31T07:26:40.815Z,97423.41
2022-08-31T07:29:10.031Z,97426.22
2022-08-31T07:31:46.176Z,97434.38
2022-08-31T07:34:19.236Z,97432.44
2022-08-31T07:37:15.985Z,97427.16
2022-08-31T07:40:07.160Z,97432.94
2022-08-31T07:42:43.646Z,97432.56
2022-08-31T07:45:22.833Z,97439.72
2022-08-31T07:47:53.606Z,97436.94
2022-08-31T07:50:23.048Z,97444.66
2022-08-31T07:53:11.749Z,97447.06
2022-08-31T07:55:41.918Z,97447.06
2022-08-31T07:58:22.618Z,97451.13
2022-08-31T08:00:49.821Z,97447.84
2022-08-31T08:03:16.661Z,97455.03
2022-08-31T08:06:04.100Z,97446.66
2022-08-31T08:08:39.019Z,97450.28
2022-08-31T08:11:36.726Z,97458.31
2022-08-31T08:14:39.549Z,97460.44
2022-08-31T08:17:35.806Z,97452.28
2022-08-31T08:20:14.085Z,97455.66
2022-08-31T08:22:54.175Z,97456.78
2022-08-31T08:25:34.778Z,97445.75
2022-08-31T08:28:39.171Z,97456.78
2022-08-31T08:31:14.307Z,97453.78
2022-08-31T08:33:41.106Z,97446.72
2022-08-31T08:36:08.563Z,97446.31
2022-08-31T08:38:40.131Z,97451.03
2022-08-31T08:41:12.945Z,97455.28
2022-08-31T08:43:43.860Z,97455.72
2022-08-31T08:46:33.331Z,97458.25
2022-08-31T08:49:28.359Z,97450.31
2022-08-31T08:52:03.264Z,97461.16
2022-08-31T08:54:38.646Z,97459.53
2022-08-31T08:57:14.766Z,97458.81
2022-08-31T08:59:45.362Z,97455.13
2022-08-31T09:02:21.452Z,97458.81
2022-08-31T09:04:51.809Z,97466.38
2022-08-31T09:07:56.940Z,97461.88
2022-08-31T09:10:33.553Z,97450.66
2022-08-31T09:13:09.132Z,97452.78
2022-08-31T09:15:38.864Z,97454.69
2022-08-31T09:18:33.530Z,97465.50
2022-08-31T09:21:29.485Z,97459.56
2022-08-31T09:24:04.434Z,97454.91
2022-08-31T09:27:27.363Z,97457.97
2022-08-31T09:30:00.557Z,97464.84
2022-08-31T09:32:34.895Z,97461.94
2022-08-31T09:35:08.132Z,97469.75
2022-08-31T09:37:50.485Z,97476.28
2022-08-31T09:40:23.664Z,97465.31
2022-08-31T09:43:25.481Z,97469.69
2022-08-31T09:46:09.976Z,97481.78
2022-08-31T09:48:52.980Z,97482.72
2022-08-31T09:51:24.504Z,97477.88
2022-08-31T09:54:10.208Z,97482.44
2022-08-31T09:56:57.456Z,97482.44
2022-08-31T09:59:44.100Z,97472.25
2022-08-31T10:02:30.139Z,97482.84
2022-08-31T10:05:06.354Z,97478.53
2022-08-31T10:07:55.302Z,97486.00
2022-08-31T10:10:31.479Z,97483.88
2022-08-31T10:13:12.446Z,97482.25
2022-08-31T10:15:53.838Z,97488.34
2022-08-31T10:18:44.915Z,97483.25
2022-08-31T10:21:21.259Z,97480.63
2022-08-31T10:23:59.068Z,97480.31
2022-08-31T10:26:39.136Z,97482.94
2022-08-31T10:29:21.181Z,97489.13
2022-08-31T10:31:54.841Z,97489.56
2022-08-31T10:34:49.239Z,97497.13
2022-08-31T10:37:24.063Z,97494.75
2022-08-31T10:39:58.676Z,97495.28
2022-08-31T10:42:30.090Z,97495.13
2022-08-31T10:45:04.229Z,97488.69
2022-08-31T10:47:34.086Z,97490.59
2022-08-31T10:50:04.901Z,97489.38
2022-08-31T10:53:03.715Z,97498.09
2022-08-31T10:55:58.038Z,97491.06
2022-08-31T10:59:02.322Z,97491.22
2022-08-31T11:01:41.367Z,97489.47
2022-08-31T11:04:25.126Z,97493.44
2022-08-31T11:07:26.132Z,97500.50
2022-08-31T11:10:03.825Z,97497.75
2022-08-31T11:12:42.370Z,97495.09
2022-08-31T11:15:44.087Z,97497.50
2022-08-31T11:18:40.250Z,97489.66
2022-08-31T11:21:26.291Z,97491.09
2022-08-31T11:24:07.734Z,97497.59
2022-08-31T11:27:00.445Z,97493.16
2022-08-31T11:29:36.256Z,97494.22
2022-08-31T11:32:15.085Z,97489.81
2022-08-31T11:35:08.345Z,97498.81
2022-08-31T11:37:56.014Z,97493.63
2022-08-31T11:40:41.620Z,97492.84
2022-08-31T11:43:35.923Z,97491.31
2022-08-31T11:46:27.221Z,97487.22
2022-08-31T11:48:54.514Z,97488.59
2022-08-31T11:51:42.069Z,97498.22
2022-08-31T11:54:22.775Z,97491.84
2022-08-31T11:56:49.428Z,97496.94
2022-08-31T11:59:30.156Z,97488.13
2022-08-31T12:02:19.359Z,97486.25
2022-08-31T12:04:52.245Z,97478.97
2022-08-31T12:07:31.004Z,97468.75
2022-08-31T12:10:11.745Z,97477.63
2022-08-31T12:12:49.693Z,97475.56
2022-08-31T12:15:27.343Z,97472.69
2022-08-31T12:17:53.912Z,97480.03
2022-08-31T12:20:31.265Z,97473.84
2022-08-31T12:23:35.562Z,97483.59
2022-08-31T12:26:20.799Z,97474.75
2022-08-31T12:28:59.265Z,97464.13
2022-08-31T12:31:26.577Z,97474.88
2022-08-31T12:34:03.194Z,97468.59
2022-08-31T12:36:33.715Z,97464.69
2022-08-31T12:39:18.959Z,97467.38
2022-08-31T12:41:51.679Z,97466.28
2022-08-31T12:44:41.692Z,97464.94
2022-08-31T12:47:23.957Z,97469.84
2022-08-31T12:50:06.846Z,97467.50
2022-08-31T12:53:00.735Z,97459.44
2022-08-31T12:55:45.827Z,97467.16
2022-08-31T12:58:38.444Z,97456.09
2022-08-31T13:01:09.564Z,97457.09
2022-08-31T13:03:40.093Z,97449.03
2022-08-31T13:06:08.964Z,97448.34
2022-08-31T13:08:42.960Z,97446.03
2022-08-31T13:11:35.474Z,97443.69
2022-08-31T13:14:19.968Z,97447.88
2022-08-31T13:16:52.814Z,97443.81
2022-08-31T13:19:26.459Z,97437.44
2022-08-31T13:21:58.104Z,97445.34
2022-08-31T13:24:28.903Z,97438.78
2022-08-31T13:27:12.464Z,97441.84
2022-08-31T13:29:45.253Z,97436.75
2022-08-31T13:32:22.138Z,97430.53
2022-08-31T13:34:49.222Z,97423.34
2022-08-31T13:37:32.789Z,97424.50
2022-08-31T13:40:07.619Z,97426.41
2022-08-31T13:42:42.724Z,97418.91
2022-08-31T13:45:29.084Z,97414.66
2022-08-31T13:48:03.022Z,97416.03
2022-08-31T13:50:47.756Z,97415.16
2022-08-31T13:53:39.964Z,97411.81
2022-08-31T13:56:43.725Z,97401.59
2022-08-31T13:59:22.156Z,97406.97
2022-08-31T14:01:59.898Z,97394.25
2022-08-31T14:04:48.423Z,97396.47
2022-08-31T14:07:23.818Z,97401.81
2022-08-31T14:10:07.948Z,97390.13
2022-08-31T14:12:46.077Z,97406.28
2022-08-31T14:15:17.448Z,97417.88
2022-08-31T14:21:24.251Z,97406.78
2022-08-31T14:23:53.567Z,97404.22
2022-08-31T14:26:26.110Z,97389.78
2022-08-31T14:28:55.624Z,97396.38
2022-08-31T14:31:26.854Z,97395.16
2022-08-31T14:34:08.050Z,97393.56
2022-08-31T14:36:44.682Z,97385.97
2022-08-31T14:39:11.903Z,97383.19
2022-08-31T14:41:38.523Z,97380.69
2022-08-31T14:44:09.317Z,97382.81
2022-08-31T14:46:38.684Z,97379.94
2022-08-31T14:49:07.168Z,97377.91
2022-08-31T14:51:35.164Z,97385.94
2022-08-31T14:54:01.787Z,97376.38
2022-08-31T14:56:33.203Z,97379.91
2022-08-31T14:59:03.855Z,97371.78
2022-08-31T15:01:35.781Z,97378.31
2022-08-31T15:04:04.077Z,97373.91
2022-08-31T15:06:32.847Z,97372.28
2022-08-31T15:09:01.226Z,97373.72
2022-08-31T15:11:27.794Z,97379.72
2022-08-31T15:13:55.079Z,97372.06
2022-08-31T15:16:23.930Z,97361.53
2022-08-31T15:18:54.313Z,97364.41
2022-08-31T15:21:21.125Z,97369.41
2022-08-31T15:23:50.874Z,97365.28
2022-08-31T15:26:21.367Z,97367.06
2022-08-31T15:28:52.526Z,97367.59
2022-08-31T15:31:27.042Z,97371.50
2022-08-31T15:33:55.398Z,97373.22
2022-08-31T15:36:24.974Z,97379.72
2022-08-31T15:38:57.216Z,97375.66
2022-08-31T15:41:28.391Z,97378.16
2022-08-31T15:43:55.724Z,97371.94
2022-08-31T15:46:40.641Z,97380.97
2022-08-31T15:49:09.881Z,97380.03
2022-08-31T15:51:50.188Z,97377.56
2022-08-31T15:54:22.672Z,97372.19
2022-08-31T15:56:54.086Z,97366.66
2022-08-31T15:59:22.965Z,97362.75
2022-08-31T16:01:51.823Z,97357.03
2022-08-31T16:04:23.489Z,97352.84
2022-08-31T16:06:52.931Z,97352.34
2022-08-31T16:09:22.902Z,97349.31
2022-08-31T16:11:50.953Z,97350.50
2022-08-31T16:14:18.156Z,97353.00
2022-08-31T16:16:47.749Z,97348.31
2022-08-31T16:19:34.191Z,97344.66
2022-08-31T16:22:03.867Z,97349.88
2022-08-31T16:24:37.189Z,97340.44
2022-08-31T16:27:11.531Z,97330.53
2022-08-31T16:29:39.151Z,97334.59
2022-08-31T16:32:08.403Z,97337.47
2022-08-31T16:34:37.227Z,97337.78
2022-08-31T16:37:07.731Z,97333.13
2022-08-31T16:39:40.579Z,97332.75
2022-08-31T16:42:11.033Z,97332.59
2022-08-31T16:44:39.343Z,97334.94
2022-08-31T16:47:07.560Z,97329.56
2022-08-31T16:49:36.214Z,97335.59
2022-08-31T16:52:11.114Z,97330.28
2022-08-31T16:54:43.004Z,97339.47
2022-08-31T16:57:15.462Z,97332.28
2022-08-31T16:59:42.489Z,97332.41
2022-08-31T17:02:11.817Z,97330.72
2022-08-31T17:04:52.005Z,97334.09
2022-08-31T17:07:20.632Z,97335.25
2022-08-31T17:09:47.877Z,97336.59
2022-08-31T17:12:21.717Z,97332.53
2022-08-31T17:14:52.763Z,97336.22
2022-08-31T17:17:25.033Z,97340.09
2022-08-31T17:19:53.377Z,97334.53
2022-08-31T17:22:29.942Z,97342.25
2022-08-31T17:25:03.140Z,97345.59
2022-08-31T17:27:33.263Z,97342.72
2022-08-31T17:30:01.153Z,97349.88
2022-08-31T17:32:29.008Z,97346.66
2022-08-31T17:34:56.334Z,97345.59
2022-08-31T17:37:30.420Z,97352.09
2022-08-31T17:39:58.875Z,97361.09
2022-08-31T17:42:27.244Z,97361.34
2022-08-31T17:44:55.686Z,97367.81
2022-08-31T17:47:24.153Z,97362.25
2022-08-31T17:49:52.677Z,97368.88
2022-08-31T17:52:21.713Z,97370.75
2022-08-31T17:54:51.089Z,97379.03
2022-08-31T17:57:22.295Z,97384.84
2022-08-31T17:59:49.357Z,97385.34
2022-08-31T18:02:23.279Z,97396.38
2022-08-31T18:04:52.194Z,97390.72
2022-08-31T18:07:20.400Z,97390.34
2022-08-31T18:09:47.659Z,97393.06
2022-08-31T18:12:16.475Z,97393.78
2022-08-31T18:14:43.275Z,97392.59
2022-08-31T18:17:12.798Z,97403.69
2022-08-31T18:19:40.531Z,97407.78
2022-08-31T18:22:08.154Z,97403.03
2022-08-31T18:24:37.324Z,97418.03
2022-08-31T18:27:07.057Z,97416.22
2022-08-31T18:29:35.823Z,97420.16
2022-08-31T18:32:04.604Z,97423.50
2022-08-31T18:34:34.231Z,97420.50
2022-08-31T18:37:02.387Z,97422.00
2022-08-31T18:39:50.974Z,97425.06
2022-08-31T18:42:38.296Z,97424.78
2022-08-31T18:45:20.954Z,97436.09
2022-08-31T18:50:43.047Z,97432.56
2022-08-31T18:53:11.129Z,97432.97
2022-08-31T18:55:43.358Z,97433.25
2022-08-31T18:58:10.257Z,97434.91
2022-08-31T19:00:37.444Z,97440.31
2022-08-31T19:03:04.353Z,97432.69
2022-08-31T19:05:34.606Z,97438.75
2022-08-31T19:08:01.391Z,97432.31
2022-08-31T19:10:28.277Z,97438.50
2022-08-31T19:12:58.472Z,97445.41
2022-08-31T19:15:36.197Z,97447.78
2022-08-31T19:18:05.533Z,97439.72
2022-08-31T19:20:33.352Z,97441.31
2022-08-31T19:23:00.577Z,97448.25
2022-08-31T19:25:27.713Z,97441.63
2022-08-31T19:27:54.886Z,97443.78
2022-08-31T19:30:27.328Z,97449.09
2022-08-31T19:32:56.420Z,97442.63
2022-08-31T19:35:26.289Z,97449.13
2022-08-31T19:37:54.159Z,97448.56
2022-08-31T19:40:21.453Z,97444.31
2022-08-31T19:45:44.921Z,97451.94
2022-08-31T19:48:13.067Z,97453.88
2022-08-31T19:50:42.371Z,97458.22
2022-08-31T19:53:13.652Z,97455.47
2022-08-31T19:55:50.140Z,97448.28
2022-08-31T19:58:19.325Z,97444.06
2022-08-31T20:00:48.426Z,97443.28
2022-08-31T20:03:16.188Z,97442.28
2022-08-31T20:05:43.589Z,97445.28
2022-08-31T20:08:12.378Z,97443.97
2022-08-31T20:10:44.648Z,97441.88
2022-08-31T20:13:12.625Z,97445.03
2022-08-31T20:15:44.531Z,97442.94
2022-08-31T20:18:12.747Z,97436.50
2022-08-31T20:20:45.333Z,97428.72
2022-08-31T20:23:16.737Z,97442.25
2022-08-31T20:25:45.779Z,97433.00
2022-08-31T20:28:13.588Z,97439.19
2022-08-31T20:30:42.348Z,97431.31
2022-08-31T20:33:11.253Z,97435.09
2022-08-31T20:35:47.595Z,97431.31
2022-08-31T20:38:19.023Z,97439.19
2022-08-31T20:40:52.297Z,97439.47
2022-08-31T20:43:21.078Z,97432.59
2022-08-31T20:45:48.870Z,97439.63
2022-08-31T20:48:34.586Z,97437.78
2022-08-31T20:51:15.896Z,97429.91
2022-08-31T20:53:44.236Z,97436.38
2022-08-31T20:56:17.250Z,97431.31
2022-08-31T20:58:46.108Z,97435.97
2022-08-31T21:01:13.934Z,97427.38
2022-08-31T21:03:41.128Z,97428.50
2022-08-31T21:06:11.724Z,97439.00
2022-08-31T21:08:42.705Z,97440.13
2022-08-31T21:11:19.983Z,97436.16
2022-08-31T21:13:46.911Z,97437.13
2022-08-31T21:16:14.562Z,97438.25
2022-08-31T21:18:41.236Z,97432.78
2022-08-31T21:21:13.071Z,97434.63
2022-08-31T21:23:39.878Z,97428.97
2022-08-31T21:26:10.081Z,97431.09
2022-08-31T21:28:39.774Z,97442.69
2022-08-31T21:31:16.456Z,97437.34
2022-08-31T21:33:46.264Z,97441.97
2022-08-31T21:36:15.647Z,97441.56
2022-08-31T21:38:43.133Z,97442.53
2022-08-31T21:41:12.096Z,97441.81
2022-08-31T21:43:40.307Z,97446.03
2022-08-31T21:46:17.120Z,97452.22
2022-08-31T21:48:44.730Z,97445.78
2022-08-31T21:51:19.006Z,97448.06
2022-08-31T21:53:49.060Z,97442.16
2022-08-31T21:56:17.214Z,97441.75
2022-08-31T21:58:44.240Z,97447.91
2022-08-31T22:01:13.381Z,97441.56
2022-08-31T22:03:40.606Z,97443.50
2022-08-31T22:06:27.027Z,97444.78
2022-08-31T22:09:00.183Z,97439.50
2022-08-31T22:11:30.390Z,97438.66
2022-08-31T22:13:59.008Z,97445.09
2022-08-31T22:16:26.374Z,97444.66
2022-08-31T22:19:02.094Z,97446.03
2022-08-31T22:21:35.180Z,97447.97
2022-08-31T22:24:05.498Z,97438.44
2022-08-31T22:26:36.452Z,97446.84
2022-08-31T22:29:06.134Z,97446.25
2022-08-31T22:31:37.207Z,97444.97
2022-08-31T22:34:06.394Z,97435.44
2022-08-31T22:36:34.519Z,97442.16
2022-08-31T22:39:08.585Z,97442.53
2022-08-31T22:41:37.442Z,97436.56
2022-08-31T22:44:06.419Z,97439.50
2022-08-31T22:46:34.508Z,97435.72
2022-08-31T22:49:01.830Z,97430.69
2022-08-31T22:51:28.574Z,97439.13
2022-08-31T22:53:55.239Z,97442.03
2022-08-31T22:56:27.994Z,97436.47
2022-08-31T22:58:59.458Z,97432.72
2022-08-31T23:01:29.358Z,97438.59
2022-08-31T23:03:58.432Z,97434.25
2022-08-31T23:06:26.676Z,97433.84
2022-08-31T23:08:55.486Z,97435.53
2022-08-31T23:11:24.306Z,97430.63
2022-08-31T23:13:53.654Z,97429.91
2022-08-31T23:16:24.110Z,97424.00
2022-08-31T23:18:59.065Z,97427.50
2022-08-31T23:21:27.913Z,97424.41
2022-08-31T23:23:55.898Z,97423.81
2022-08-31T23:26:27.591Z,97423.38
2022-08-31T23:28:55.963Z,97420.94
2022-08-31T23:31:23.049Z,97421.19
2022-08-31T23:33:53.218Z,97422.53
2022-08-31T23:36:25.978Z,97417.50
2022-08-31T23:38:55.015Z,97423.22
2022-08-31T23:41:26.739Z,97428.06
2022-08-31T23:43:53.517Z,97425.53
2022-08-31T23:46:22.120Z,97422.28
2022-08-31T23:48:49.771Z,97423.66
2022-08-31T23:51:20.006Z,97421.22
2022-08-31T23:53:48.515Z,97424.00
2022-08-31T23:56:15.344Z,97418.34
2022-08-31T23:58:44.512Z,97424.78
